METAR Data
IDs: Format: Raw Decoded Include TAF

Data at: 0138 UTC 24 Sep 2018

KECU 240115Z AUTO 00000KT 10SM OVC048 22/18 A3000 RMK AO2
KECU 240055Z AUTO 00000KT 10SM OVC046 23/18 A3000 RMK AO2
KECU 240035Z AUTO 00000KT 10SM OVC044 23/18 A3000 RMK AO2
KECU 240015Z AUTO 00000KT 10SM OVC044 23/18 A3000 RMK AO2
KECU 232355Z AUTO 00000KT 10SM OVC042 23/18 A3000 RMK AO2
KECU 232335Z AUTO 00000KT 10SM OVC040 23/18 A3000 RMK AO2
KECU 232315Z AUTO 01004KT 10SM OVC038 23/17 A3000 RMK AO2
KECU 232255Z AUTO 01004KT 10SM OVC038 24/17 A3000 RMK AO2
KECU 232235Z AUTO 01004KT 10SM OVC038 24/17 A3001 RMK AO2
KECU 232215Z AUTO 36004KT 10SM FEW030 OVC037 24/18 A3001 RMK AO2
KECU 232155Z AUTO 00000KT 10SM OVC033 24/17 A3001 RMK AO2
KECU 232135Z AUTO 31006KT 10SM OVC034 24/17 A3001 RMK AO2
KECU 232115Z AUTO 34004KT 10SM OVC032 24/17 A3001 RMK AO2
KECU 232055Z AUTO 32006KT 10SM OVC032 24/17 A3002 RMK AO2
KECU 232035Z AUTO 33007KT 10SM OVC032 24/17 A3003 RMK AO2
KECU 232015Z AUTO 35006KT 10SM OVC029 24/17 A3004 RMK AO2
KECU 231955Z AUTO 35007KT 10SM OVC029 24/17 A3004 RMK AO2
KECU 231935Z AUTO 31005G11KT 10SM OVC028 24/17 A3005 RMK AO2
KECU 231915Z AUTO 35008KT 10SM OVC027 24/17 A3006 RMK AO2
KECU 231855Z AUTO 33008KT 310V010 10SM OVC025 24/17 A3007 RMK AO2
KECU 231835Z AUTO 32008KT 10SM BKN023 OVC060 23/17 A3008 RMK AO2
KECU 231815Z AUTO 33008KT 10SM BKN023 OVC055 23/17 A3009 RMK AO2
KECU 231755Z AUTO 32008KT 10SM BKN022 OVC050 23/17 A3009 RMK AO2
KECU 231735Z AUTO 36007KT 10SM BKN021 BKN026 OVC047 22/17 A3010 RMK AO2
KECU 231715Z AUTO 01005G11KT 10SM SCT020 OVC048 22/17 A3010 RMK AO2
KECU 231655Z AUTO 35008KT 320V020 10SM BKN019 OVC047 21/17 A3011 RMK AO2
KECU 231635Z AUTO 34008KT 10SM OVC019 21/17 A3011 RMK AO2
KECU 231615Z AUTO 35007KT 10SM OVC018 21/17 A3011 RMK AO2
KECU 231555Z AUTO 35009KT 10SM BKN014 BKN019 OVC048 20/17 A3011 RMK AO2
KECU 231535Z AUTO 35008KT 10SM OVC013 20/17 A3010 RMK AO2
KECU 231515Z AUTO 35009KT 10SM OVC011 19/17 A3010 RMK AO2
KECU 231455Z AUTO 35007KT 10SM OVC011 19/17 A3010 RMK AO2
KECU 231435Z AUTO 34005KT 10SM OVC012 19/17 A3009 RMK AO2
KECU 231415Z AUTO VRB06G12KT 10SM OVC013 19/17 A3009 RMK AO2
KECU 231355Z AUTO VRB06G12KT 10SM OVC011 19/17 A3008 RMK AO2
KECU 231335Z AUTO 33007KT 9SM OVC010 18/17 A3008 RMK AO2
KECU 231315Z AUTO 33005KT 10SM OVC010 18/17 A3007 RMK AO2
KECU 231255Z AUTO 34006KT 10SM OVC009 18/17 A3007 RMK AO2
KECU 231235Z AUTO 35006KT 10SM OVC009 18/17 A3006 RMK AO2
KECU 231215Z AUTO 33006KT 10SM OVC009 18/17 A3005 RMK AO2
KECU 231155Z AUTO 34009KT 10SM OVC009 18/17 A3005 RMK AO2
KECU 231135Z AUTO 33006KT 10SM OVC009 18/17 A3004 RMK AO2
KECU 231115Z AUTO 31006KT 10SM OVC010 18/17 A3004 RMK AO2
KECU 231055Z AUTO 34007KT 10SM OVC010 18/17 A3004 RMK AO2
KECU 231035Z AUTO 34005KT 10SM OVC010 18/17 A3003 RMK AO2
KECU 231015Z AUTO 34008KT 10SM OVC010 18/17 A3003 RMK AO2
KECU 230955Z AUTO 34009KT 10SM OVC010 18/16 A3004 RMK AO2
KECU 230935Z AUTO 33010KT 10SM OVC011 18/16 A3004 RMK AO2
KECU 230915Z AUTO 33008KT 10SM OVC011 18/17 A3005 RMK AO2
KECU 230855Z AUTO 31007KT 10SM OVC012 18/17 A3005 RMK AO2
KECU 230835Z AUTO 31006KT 10SM OVC013 18/16 A3006 RMK AO2
KECU 230815Z AUTO 31006KT 10SM BKN013 OVC042 18/16 A3006 RMK AO2
KECU 230755Z AUTO 31005KT 10SM SCT017 SCT036 OVC042 18/16 A3007 RMK AO2
KECU 230735Z AUTO 32006KT 10SM BKN015 OVC019 18/16 A3007 RMK AO2
KECU 230715Z AUTO 32006KT 10SM OVC014 18/16 A3008 RMK AO2
KECU 230655Z AUTO 33007KT 10SM BKN015 OVC019 18/16 A3008 RMK AO2
KECU 230635Z AUTO 33007KT 10SM OVC017 18/16 A3008 RMK AO2
KECU 230615Z AUTO 32006KT 10SM OVC017 18/16 A3009 RMK AO2
KECU 230555Z AUTO 33006KT 10SM BKN017 OVC025 18/16 A3009 RMK AO2
KECU 230535Z AUTO 35005KT 10SM SCT011 BKN019 OVC041 18/16 A3009 RMK AO2
KECU 230515Z AUTO 34008KT 10SM BKN012 OVC041 18/16 A3009 RMK AO2
KECU 230455Z AUTO 33006KT 10SM BKN011 OVC039 18/16 A3009 RMK AO2
KECU 230435Z AUTO 34007KT 10SM FEW011 OVC038 18/16 A3009 RMK AO2
KECU 230415Z AUTO 33008KT 10SM OVC036 18/16 A3010 RMK AO2
KECU 230355Z AUTO 34009KT 10SM FEW027 OVC035 18/16 A3009 RMK AO2
KECU 230335Z AUTO 33008KT 10SM SCT016 BKN027 OVC035 17/16 A3010 RMK AO2
KECU 230315Z AUTO 33009KT 10SM OVC016 18/16 A3010 RMK AO2
KECU 230255Z AUTO 34006KT 10SM OVC017 18/16 A3010 RMK AO2
KECU 230235Z AUTO 35006KT 10SM BKN015 OVC020 18/16 A3010 RMK AO2
KECU 230215Z AUTO 34006KT 10SM OVC016 18/16 A3010 RMK AO2
KECU 230155Z AUTO 35009KT 10SM OVC014 18/16 A3009 RMK AO2
KECU 230135Z AUTO 34010KT 10SM OVC014 18/16 A3008 RMK AO2
KECU 230115Z AUTO 34011KT 10SM OVC015 18/16 A3008 RMK AO2
KECU 230055Z AUTO 34008KT 10SM OVC015 18/16 A3008 RMK AO2
KECU 230035Z AUTO 34009KT 10SM OVC014 18/16 A3008 RMK AO2
KECU 230015Z AUTO 34009G14KT 10SM OVC015 18/16 A3008 RMK AO2
KECU 222355Z AUTO 34007G14KT 10SM OVC016 19/16 A3008 RMK AO2
KECU 222335Z AUTO 33010KT 10SM OVC016 19/16 A3008 RMK AO2
KECU 222315Z AUTO 34010KT 10SM OVC016 19/15 A3008 RMK AO2
KECU 222255Z AUTO 34012KT 10SM OVC016 19/15 A3008 RMK AO2
KECU 222235Z AUTO 33011KT 10SM OVC017 19/15 A3008 RMK AO2
KECU 222215Z AUTO 35010KT 10SM OVC017 19/15 A3008 RMK AO2
KECU 222155Z AUTO 33010G16KT 10SM OVC017 19/15 A3008 RMK AO2
KECU 222135Z AUTO 33014KT 10SM OVC017 19/15 A3008 RMK AO2
KECU 222115Z AUTO 33013G18KT 10SM OVC016 19/15 A3008 RMK AO2
KECU 222055Z AUTO 33013KT 10SM OVC015 19/15 A3008 RMK AO2
KECU 222035Z AUTO 32012G18KT 10SM OVC016 19/15 A3008 RMK AO2
KECU 222015Z AUTO 34011G17KT 10SM OVC016 20/15 A3009 RMK AO2
KECU 221955Z AUTO 33014KT 10SM OVC015 19/15 A3010 RMK AO2
KECU 221935Z AUTO 32015KT 10SM OVC014 19/15 A3010 RMK AO2
KECU 221915Z AUTO 32012G18KT 10SM OVC015 20/15 A3011 RMK AO2
KECU 221855Z AUTO 32011G18KT 10SM OVC013 19/15 A3012 RMK AO2
KECU 221835Z AUTO 33013G18KT 10SM OVC013 19/15 A3012 RMK AO2
KECU 221815Z AUTO 32013KT 10SM OVC012 19/15 A3013 RMK AO2
KECU 221755Z AUTO 33011G17KT 10SM OVC011 18/15 A3014 RMK AO2
KECU 221735Z AUTO 34012G17KT 10SM OVC010 18/15 A3014 RMK AO2
KECU 221715Z AUTO 33011G17KT 10SM OVC010 17/15 A3015 RMK AO2
KECU 221655Z AUTO 33012KT 10SM OVC009 17/15 A3015 RMK AO2
KECU 221635Z AUTO 33014KT 10SM OVC010 17/15 A3015 RMK AO2
KECU 221615Z AUTO 34011G17KT 10SM OVC009 17/15 A3015 RMK AO2
KECU 221555Z AUTO 35014KT 10SM OVC009 16/14 A3014 RMK AO2
KECU 221535Z AUTO 34011G17KT 10SM OVC009 16/14 A3013 RMK AO2
KECU 221515Z AUTO 34012KT 10SM OVC009 16/14 A3013 RMK AO2
KECU 221455Z AUTO 35009G17KT 10SM OVC008 16/14 A3013 RMK AO2
KECU 221435Z AUTO 34012G18KT 10SM OVC006 16/14 A3013 RMK AO2
KECU 221415Z AUTO 35010G16KT 10SM OVC006 16/15 A3013 RMK AO2
KECU 221355Z AUTO 35011G17KT 10SM BKN007 BKN012 OVC038 16/15 A3012 RMK AO2